sensor_id;sensor_type;location;lat;lon;timestamp;temperature;humidity
63013;DHT22;62113;45.624;11.700;2022-12-18T00:00:41;8.70;63.80
63013;DHT22;62113;45.624;11.700;2022-12-18T00:03:07;8.70;63.80
63013;DHT22;62113;45.624;11.700;2022-12-18T00:05:32;8.70;63.90
63013;DHT22;62113;45.624;11.700;2022-12-18T00:07:58;8.60;64.10
63013;DHT22;62113;45.624;11.700;2022-12-18T00:10:23;8.60;64.00
63013;DHT22;62113;45.624;11.700;2022-12-18T00:12:49;8.50;64.20
63013;DHT22;62113;45.624;11.700;2022-12-18T00:15:14;8.50;64.20
63013;DHT22;62113;45.624;11.700;2022-12-18T00:17:40;8.50;64.30
63013;DHT22;62113;45.624;11.700;2022-12-18T00:20:05;8.50;64.40
63013;DHT22;62113;45.624;11.700;2022-12-18T00:22:31;8.50;64.50
63013;DHT22;62113;45.624;11.700;2022-12-18T00:24:57;8.40;64.50
63013;DHT22;62113;45.624;11.700;2022-12-18T00:27:22;8.40;64.60
63013;DHT22;62113;45.624;11.700;2022-12-18T00:29:48;8.40;64.80
63013;DHT22;62113;45.624;11.700;2022-12-18T00:32:13;8.40;64.90
63013;DHT22;62113;45.624;11.700;2022-12-18T00:34:39;8.40;65.00
63013;DHT22;62113;45.624;11.700;2022-12-18T00:37:04;8.30;65.10
63013;DHT22;62113;45.624;11.700;2022-12-18T00:39:30;8.30;65.10
63013;DHT22;62113;45.624;11.700;2022-12-18T00:41:55;8.20;65.20
63013;DHT22;62113;45.624;11.700;2022-12-18T00:44:40;8.20;65.30
63013;DHT22;62113;45.624;11.700;2022-12-18T00:47:05;8.20;65.40
63013;DHT22;62113;45.624;11.700;2022-12-18T00:49:30;8.20;65.50
63013;DHT22;62113;45.624;11.700;2022-12-18T00:51:56;8.10;65.60
63013;DHT22;62113;45.624;11.700;2022-12-18T00:54:21;8.20;65.60
63013;DHT22;62113;45.624;11.700;2022-12-18T00:56:47;8.10;65.70
63013;DHT22;62113;45.624;11.700;2022-12-18T00:59:12;8.10;65.70
63013;DHT22;62113;45.624;11.700;2022-12-18T01:01:38;8.10;65.70
63013;DHT22;62113;45.624;11.700;2022-12-18T01:04:03;8.10;65.80
63013;DHT22;62113;45.624;11.700;2022-12-18T01:06:29;8.00;65.80
63013;DHT22;62113;45.624;11.700;2022-12-18T01:08:55;8.00;65.90
63013;DHT22;62113;45.624;11.700;2022-12-18T01:11:21;8.00;65.90
63013;DHT22;62113;45.624;11.700;2022-12-18T01:13:46;8.00;66.00
63013;DHT22;62113;45.624;11.700;2022-12-18T01:16:12;8.00;66.00
63013;DHT22;62113;45.624;11.700;2022-12-18T01:18:38;8.00;66.10
63013;DHT22;62113;45.624;11.700;2022-12-18T01:21:07;8.00;66.10
63013;DHT22;62113;45.624;11.700;2022-12-18T01:23:33;7.90;66.10
63013;DHT22;62113;45.624;11.700;2022-12-18T01:26:03;7.90;66.20
63013;DHT22;62113;45.624;11.700;2022-12-18T01:28:29;7.90;66.20
63013;DHT22;62113;45.624;11.700;2022-12-18T01:30:54;7.90;66.10
63013;DHT22;62113;45.624;11.700;2022-12-18T01:33:20;7.90;66.30
63013;DHT22;62113;45.624;11.700;2022-12-18T01:35:45;7.80;66.20
63013;DHT22;62113;45.624;11.700;2022-12-18T01:38:11;7.90;66.20
63013;DHT22;62113;45.624;11.700;2022-12-18T01:40:36;7.80;66.20
63013;DHT22;62113;45.624;11.700;2022-12-18T01:43:02;7.80;66.00
63013;DHT22;62113;45.624;11.700;2022-12-18T01:45:29;7.80;66.00
63013;DHT22;62113;45.624;11.700;2022-12-18T01:47:56;7.80;65.90
63013;DHT22;62113;45.624;11.700;2022-12-18T01:50:33;7.80;65.70
63013;DHT22;62113;45.624;11.700;2022-12-18T01:53:19;7.80;65.60
63013;DHT22;62113;45.624;11.700;2022-12-18T01:58:14;7.80;65.50
63013;DHT22;62113;45.624;11.700;2022-12-18T02:00:40;7.80;65.60
63013;DHT22;62113;45.624;11.700;2022-12-18T02:03:05;7.80;65.50
63013;DHT22;62113;45.624;11.700;2022-12-18T02:05:40;7.70;65.60
63013;DHT22;62113;45.624;11.700;2022-12-18T02:08:15;7.80;65.40
63013;DHT22;62113;45.624;11.700;2022-12-18T02:13:50;7.70;65.40
63013;DHT22;62113;45.624;11.700;2022-12-18T02:18:45;7.70;65.80
63013;DHT22;62113;45.624;11.700;2022-12-18T02:23:57;7.70;65.90
63013;DHT22;62113;45.624;11.700;2022-12-18T02:29:08;7.70;66.10
63013;DHT22;62113;45.624;11.700;2022-12-18T02:31:36;7.60;66.20
63013;DHT22;62113;45.624;11.700;2022-12-18T02:34:04;7.60;66.30
63013;DHT22;62113;45.624;11.700;2022-12-18T02:36:31;7.60;66.40
63013;DHT22;62113;45.624;11.700;2022-12-18T02:38:57;7.60;66.60
63013;DHT22;62113;45.624;11.700;2022-12-18T02:41:24;7.60;66.70
63013;DHT22;62113;45.624;11.700;2022-12-18T02:43:53;7.60;66.70
63013;DHT22;62113;45.624;11.700;2022-12-18T02:48:51;7.60;67.00
63013;DHT22;62113;45.624;11.700;2022-12-18T02:51:40;7.60;67.00
63013;DHT22;62113;45.624;11.700;2022-12-18T02:54:10;7.60;67.00
63013;DHT22;62113;45.624;11.700;2022-12-18T02:56:41;7.60;67.00
63013;DHT22;62113;45.624;11.700;2022-12-18T02:59:12;7.60;67.00
63013;DHT22;62113;45.624;11.700;2022-12-18T03:04:17;7.50;67.10
63013;DHT22;62113;45.624;11.700;2022-12-18T03:06:47;7.50;67.20
63013;DHT22;62113;45.624;11.700;2022-12-18T03:09:15;7.50;67.20
63013;DHT22;62113;45.624;11.700;2022-12-18T03:11:43;7.40;67.40
63013;DHT22;62113;45.624;11.700;2022-12-18T03:14:29;7.40;67.60
63013;DHT22;62113;45.624;11.700;2022-12-18T03:16:57;7.40;67.60
63013;DHT22;62113;45.624;11.700;2022-12-18T03:19:24;7.30;67.80
63013;DHT22;62113;45.624;11.700;2022-12-18T03:21:53;7.30;67.90
63013;DHT22;62113;45.624;11.700;2022-12-18T03:24:19;7.20;68.00
63013;DHT22;62113;45.624;11.700;2022-12-18T03:26:46;7.20;68.00
63013;DHT22;62113;45.624;11.700;2022-12-18T03:29:13;7.20;68.10
63013;DHT22;62113;45.624;11.700;2022-12-18T03:31:41;7.20;68.20
63013;DHT22;62113;45.624;11.700;2022-12-18T03:34:09;7.10;68.40
63013;DHT22;62113;45.624;11.700;2022-12-18T03:36:38;7.10;68.60
63013;DHT22;62113;45.624;11.700;2022-12-18T03:39:03;7.10;68.60
63013;DHT22;62113;45.624;11.700;2022-12-18T03:41:31;7.10;68.60
63013;DHT22;62113;45.624;11.700;2022-12-18T03:46:29;7.00;68.70
63013;DHT22;62113;45.624;11.700;2022-12-18T03:48:59;7.00;68.90
63013;DHT22;62113;45.624;11.700;2022-12-18T03:53:58;7.00;69.00
63013;DHT22;62113;45.624;11.700;2022-12-18T03:56:25;7.00;69.00
63013;DHT22;62113;45.624;11.700;2022-12-18T03:58:52;6.90;69.10
63013;DHT22;62113;45.624;11.700;2022-12-18T04:01:20;6.90;69.20
63013;DHT22;62113;45.624;11.700;2022-12-18T04:03:46;6.90;69.30
63013;DHT22;62113;45.624;11.700;2022-12-18T04:06:13;6.90;69.50
63013;DHT22;62113;45.624;11.700;2022-12-18T04:08:39;6.80;69.50
63013;DHT22;62113;45.624;11.700;2022-12-18T04:11:05;6.80;69.50
63013;DHT22;62113;45.624;11.700;2022-12-18T04:13:34;6.80;69.60
63013;DHT22;62113;45.624;11.700;2022-12-18T04:16:00;6.80;69.50
63013;DHT22;62113;45.624;11.700;2022-12-18T04:18:26;6.70;69.70
63013;DHT22;62113;45.624;11.700;2022-12-18T04:20:52;6.80;69.70
63013;DHT22;62113;45.624;11.700;2022-12-18T04:23:17;6.70;69.70
63013;DHT22;62113;45.624;11.700;2022-12-18T04:25:42;6.70;69.90
63013;DHT22;62113;45.624;11.700;2022-12-18T04:28:08;6.70;69.90
63013;DHT22;62113;45.624;11.700;2022-12-18T04:30:33;6.70;70.00
63013;DHT22;62113;45.624;11.700;2022-12-18T04:32:59;6.70;69.90
63013;DHT22;62113;45.624;11.700;2022-12-18T04:35:25;6.70;69.90
63013;DHT22;62113;45.624;11.700;2022-12-18T04:37:50;6.60;69.90
63013;DHT22;62113;45.624;11.700;2022-12-18T04:40:15;6.70;70.00
63013;DHT22;62113;45.624;11.700;2022-12-18T04:42:41;6.60;70.10
63013;DHT22;62113;45.624;11.700;2022-12-18T04:45:07;6.60;70.10
63013;DHT22;62113;45.624;11.700;2022-12-18T04:47:32;6.50;70.10
63013;DHT22;62113;45.624;11.700;2022-12-18T04:49:58;6.50;70.20
63013;DHT22;62113;45.624;11.700;2022-12-18T04:52:23;6.50;70.30
63013;DHT22;62113;45.624;11.700;2022-12-18T04:54:49;6.50;70.30
63013;DHT22;62113;45.624;11.700;2022-12-18T04:57:14;6.50;70.30
63013;DHT22;62113;45.624;11.700;2022-12-18T04:59:40;6.50;70.30
63013;DHT22;62113;45.624;11.700;2022-12-18T05:02:06;6.50;70.40
63013;DHT22;62113;45.624;11.700;2022-12-18T05:04:31;6.50;70.30
63013;DHT22;62113;45.624;11.700;2022-12-18T05:06:57;6.50;70.40
63013;DHT22;62113;45.624;11.700;2022-12-18T05:09:22;6.50;70.40
63013;DHT22;62113;45.624;11.700;2022-12-18T05:11:48;6.50;70.50
63013;DHT22;62113;45.624;11.700;2022-12-18T05:14:14;6.50;70.40
63013;DHT22;62113;45.624;11.700;2022-12-18T05:16:39;6.50;70.30
63013;DHT22;62113;45.624;11.700;2022-12-18T05:19:05;6.50;70.40
63013;DHT22;62113;45.624;11.700;2022-12-18T05:21:30;6.50;70.40
63013;DHT22;62113;45.624;11.700;2022-12-18T05:23:56;6.50;70.40
63013;DHT22;62113;45.624;11.700;2022-12-18T05:26:21;6.50;70.50
63013;DHT22;62113;45.624;11.700;2022-12-18T05:28:47;6.50;70.50
63013;DHT22;62113;45.624;11.700;2022-12-18T05:31:13;6.60;70.40
63013;DHT22;62113;45.624;11.700;2022-12-18T05:33:38;6.60;70.30
63013;DHT22;62113;45.624;11.700;2022-12-18T05:36:05;6.60;70.20
63013;DHT22;62113;45.624;11.700;2022-12-18T05:38:31;6.60;70.00
63013;DHT22;62113;45.624;11.700;2022-12-18T05:40:57;6.60;70.00
63013;DHT22;62113;45.624;11.700;2022-12-18T05:43:23;6.50;70.10
63013;DHT22;62113;45.624;11.700;2022-12-18T05:45:49;6.50;70.00
63013;DHT22;62113;45.624;11.700;2022-12-18T05:48:15;6.50;70.00
63013;DHT22;62113;45.624;11.700;2022-12-18T05:50:42;6.50;69.80
63013;DHT22;62113;45.624;11.700;2022-12-18T05:53:09;6.50;69.80
63013;DHT22;62113;45.624;11.700;2022-12-18T05:55:35;6.50;69.90
63013;DHT22;62113;45.624;11.700;2022-12-18T05:58:01;6.50;69.80
63013;DHT22;62113;45.624;11.700;2022-12-18T06:00:26;6.50;69.70
63013;DHT22;62113;45.624;11.700;2022-12-18T06:02:51;6.40;69.70
63013;DHT22;62113;45.624;11.700;2022-12-18T06:05:17;6.40;69.70
63013;DHT22;62113;45.624;11.700;2022-12-18T06:07:42;6.40;69.60
63013;DHT22;62113;45.624;11.700;2022-12-18T06:10:08;6.30;69.60
63013;DHT22;62113;45.624;11.700;2022-12-18T06:12:33;6.30;69.60
63013;DHT22;62113;45.624;11.700;2022-12-18T06:14:59;6.20;69.60
63013;DHT22;62113;45.624;11.700;2022-12-18T06:17:28;6.20;69.50
63013;DHT22;62113;45.624;11.700;2022-12-18T06:19:54;6.20;69.50
63013;DHT22;62113;45.624;11.700;2022-12-18T06:22:20;6.20;69.60
63013;DHT22;62113;45.624;11.700;2022-12-18T06:24:45;6.20;69.60
63013;DHT22;62113;45.624;11.700;2022-12-18T06:27:11;6.10;69.70
63013;DHT22;62113;45.624;11.700;2022-12-18T06:29:36;6.10;69.80
63013;DHT22;62113;45.624;11.700;2022-12-18T06:32:02;6.00;69.80
63013;DHT22;62113;45.624;11.700;2022-12-18T06:34:28;5.90;70.00
63013;DHT22;62113;45.624;11.700;2022-12-18T06:36:53;5.80;70.10
63013;DHT22;62113;45.624;11.700;2022-12-18T06:39:19;5.80;70.20
63013;DHT22;62113;45.624;11.700;2022-12-18T06:41:44;5.80;70.30
63013;DHT22;62113;45.624;11.700;2022-12-18T06:44:10;5.80;70.30
63013;DHT22;62113;45.624;11.700;2022-12-18T06:46:35;5.80;70.40
63013;DHT22;62113;45.624;11.700;2022-12-18T06:49:01;5.70;70.50
63013;DHT22;62113;45.624;11.700;2022-12-18T06:51:26;5.70;70.60
63013;DHT22;62113;45.624;11.700;2022-12-18T06:53:52;5.70;70.70
63013;DHT22;62113;45.624;11.700;2022-12-18T06:56:17;5.70;70.80
63013;DHT22;62113;45.624;11.700;2022-12-18T06:58:43;5.70;70.80
63013;DHT22;62113;45.624;11.700;2022-12-18T07:01:10;5.80;70.80
63013;DHT22;62113;45.624;11.700;2022-12-18T07:03:36;5.80;70.80
63013;DHT22;62113;45.624;11.700;2022-12-18T07:06:02;5.80;70.70
63013;DHT22;62113;45.624;11.700;2022-12-18T07:08:28;5.80;70.70
63013;DHT22;62113;45.624;11.700;2022-12-18T07:10:54;5.80;70.50
63013;DHT22;62113;45.624;11.700;2022-12-18T07:13:19;5.90;70.40
63013;DHT22;62113;45.624;11.700;2022-12-18T07:15:45;5.80;70.50
63013;DHT22;62113;45.624;11.700;2022-12-18T07:18:10;5.80;70.60
63013;DHT22;62113;45.624;11.700;2022-12-18T07:20:36;5.80;70.70
63013;DHT22;62113;45.624;11.700;2022-12-18T07:23:02;5.80;70.80
63013;DHT22;62113;45.624;11.700;2022-12-18T07:25:27;5.90;70.80
63013;DHT22;62113;45.624;11.700;2022-12-18T07:27:53;5.90;70.70
63013;DHT22;62113;45.624;11.700;2022-12-18T07:30:19;5.90;70.80
63013;DHT22;62113;45.624;11.700;2022-12-18T07:32:44;6.00;70.80
63013;DHT22;62113;45.624;11.700;2022-12-18T07:35:10;6.00;70.90
63013;DHT22;62113;45.624;11.700;2022-12-18T07:37:35;6.00;70.70
63013;DHT22;62113;45.624;11.700;2022-12-18T07:40:01;6.00;70.70
63013;DHT22;62113;45.624;11.700;2022-12-18T07:42:26;6.10;71.00
63013;DHT22;62113;45.624;11.700;2022-12-18T07:44:58;6.20;71.00
63013;DHT22;62113;45.624;11.700;2022-12-18T07:47:24;6.30;71.30
63013;DHT22;62113;45.624;11.700;2022-12-18T07:49:50;6.50;71.20
63013;DHT22;62113;45.624;11.700;2022-12-18T07:52:15;6.70;70.80
63013;DHT22;62113;45.624;11.700;2022-12-18T07:54:41;7.00;70.00
63013;DHT22;62113;45.624;11.700;2022-12-18T07:57:07;7.20;69.50
63013;DHT22;62113;45.624;11.700;2022-12-18T07:59:32;7.50;69.10
63013;DHT22;62113;45.624;11.700;2022-12-18T08:01:58;7.70;68.70
63013;DHT22;62113;45.624;11.700;2022-12-18T08:04:24;7.90;68.50
63013;DHT22;62113;45.624;11.700;2022-12-18T08:06:49;8.10;67.60
63013;DHT22;62113;45.624;11.700;2022-12-18T08:09:15;8.30;67.70
63013;DHT22;62113;45.624;11.700;2022-12-18T08:11:40;8.60;67.20
63013;DHT22;62113;45.624;11.700;2022-12-18T08:14:06;8.80;66.60
63013;DHT22;62113;45.624;11.700;2022-12-18T08:16:31;9.00;66.80
63013;DHT22;62113;45.624;11.700;2022-12-18T08:18:57;9.10;65.70
63013;DHT22;62113;45.624;11.700;2022-12-18T08:21:26;9.30;65.00
63013;DHT22;62113;45.624;11.700;2022-12-18T08:23:53;9.40;64.40
63013;DHT22;62113;45.624;11.700;2022-12-18T08:26:19;9.40;64.40
63013;DHT22;62113;45.624;11.700;2022-12-18T08:28:45;9.60;64.00
63013;DHT22;62113;45.624;11.700;2022-12-18T08:31:10;9.70;63.30
63013;DHT22;62113;45.624;11.700;2022-12-18T08:33:36;9.80;63.50
63013;DHT22;62113;45.624;11.700;2022-12-18T08:36:03;9.80;62.90
63013;DHT22;62113;45.624;11.700;2022-12-18T08:38:28;9.90;62.80
63013;DHT22;62113;45.624;11.700;2022-12-18T08:41:07;9.90;63.60
63013;DHT22;62113;45.624;11.700;2022-12-18T08:43:33;9.90;62.80
63013;DHT22;62113;45.624;11.700;2022-12-18T08:46:18;9.90;62.70
63013;DHT22;62113;45.624;11.700;2022-12-18T08:48:43;9.90;62.10
63013;DHT22;62113;45.624;11.700;2022-12-18T08:51:09;10.00;62.30
63013;DHT22;62113;45.624;11.700;2022-12-18T08:53:35;10.00;62.40
63013;DHT22;62113;45.624;11.700;2022-12-18T08:56:01;10.00;61.90
63013;DHT22;62113;45.624;11.700;2022-12-18T08:58:27;10.00;62.10
63013;DHT22;62113;45.624;11.700;2022-12-18T09:00:52;10.10;62.80
63013;DHT22;62113;45.624;11.700;2022-12-18T09:03:18;10.10;62.10
63013;DHT22;62113;45.624;11.700;2022-12-18T09:05:47;10.20;61.00
63013;DHT22;62113;45.624;11.700;2022-12-18T09:08:13;10.20;61.30
63013;DHT22;62113;45.624;11.700;2022-12-18T09:10:42;10.20;61.60
63013;DHT22;62113;45.624;11.700;2022-12-18T09:13:09;10.10;61.80
63013;DHT22;62113;45.624;11.700;2022-12-18T09:15:39;10.20;62.00
63013;DHT22;62113;45.624;11.700;2022-12-18T09:18:05;10.20;62.30
63013;DHT22;62113;45.624;11.700;2022-12-18T09:20:30;10.20;62.30
63013;DHT22;62113;45.624;11.700;2022-12-18T09:22:56;10.30;61.90
63013;DHT22;62113;45.624;11.700;2022-12-18T09:25:21;10.40;61.60
63013;DHT22;62113;45.624;11.700;2022-12-18T09:27:47;10.50;61.40
63013;DHT22;62113;45.624;11.700;2022-12-18T09:30:13;10.60;60.90
63013;DHT22;62113;45.624;11.700;2022-12-18T09:32:38;10.70;60.40
63013;DHT22;62113;45.624;11.700;2022-12-18T09:35:04;10.80;60.20
63013;DHT22;62113;45.624;11.700;2022-12-18T09:37:30;11.00;60.40
63013;DHT22;62113;45.624;11.700;2022-12-18T09:39:55;11.10;59.60
63013;DHT22;62113;45.624;11.700;2022-12-18T09:42:21;11.20;59.60
63013;DHT22;62113;45.624;11.700;2022-12-18T09:44:50;11.30;58.40
63013;DHT22;62113;45.624;11.700;2022-12-18T09:49:44;11.70;56.60
63013;DHT22;62113;45.624;11.700;2022-12-18T09:52:15;11.80;56.40
63013;DHT22;62113;45.624;11.700;2022-12-18T09:54:41;12.00;56.10
63013;DHT22;62113;45.624;11.700;2022-12-18T09:57:15;12.20;56.00
63013;DHT22;62113;45.624;11.700;2022-12-18T09:59:42;12.40;55.20
63013;DHT22;62113;45.624;11.700;2022-12-18T10:02:16;12.60;54.50
63013;DHT22;62113;45.624;11.700;2022-12-18T10:04:42;12.80;53.30
63013;DHT22;62113;45.624;11.700;2022-12-18T10:07:11;13.00;52.70
63013;DHT22;62113;45.624;11.700;2022-12-18T10:09:43;13.20;53.10
63013;DHT22;62113;45.624;11.700;2022-12-18T10:12:26;13.50;51.30
63013;DHT22;62113;45.624;11.700;2022-12-18T10:15:04;13.70;49.20
63013;DHT22;62113;45.624;11.700;2022-12-18T10:20:05;14.80;46.90
63013;DHT22;62113;45.624;11.700;2022-12-18T10:27:43;18.00;40.80
63013;DHT22;62113;45.624;11.700;2022-12-18T10:30:13;18.50;38.40
63013;DHT22;62113;45.624;11.700;2022-12-18T10:32:39;18.50;38.00
63013;DHT22;62113;45.624;11.700;2022-12-18T10:35:08;18.40;38.50
63013;DHT22;62113;45.624;11.700;2022-12-18T10:37:35;18.30;38.10
63013;DHT22;62113;45.624;11.700;2022-12-18T10:40:13;18.20;38.60
63013;DHT22;62113;45.624;11.700;2022-12-18T10:42:40;17.90;38.60
63013;DHT22;62113;45.624;11.700;2022-12-18T10:45:11;17.50;39.90
63013;DHT22;62113;45.624;11.700;2022-12-18T10:47:42;17.20;40.10
63013;DHT22;62113;45.624;11.700;2022-12-18T10:50:28;16.90;41.10
63013;DHT22;62113;45.624;11.700;2022-12-18T10:52:55;16.60;41.30
63013;DHT22;62113;45.624;11.700;2022-12-18T10:55:22;16.40;42.20
63013;DHT22;62113;45.624;11.700;2022-12-18T10:57:49;16.20;42.40
63013;DHT22;62113;45.624;11.700;2022-12-18T11:02:46;16.00;43.40
63013;DHT22;62113;45.624;11.700;2022-12-18T11:05:28;15.80;43.50
63013;DHT22;62113;45.624;11.700;2022-12-18T11:07:55;15.80;43.60
63013;DHT22;62113;45.624;11.700;2022-12-18T11:10:26;15.70;43.10
63013;DHT22;62113;45.624;11.700;2022-12-18T11:12:53;15.70;42.80
63013;DHT22;62113;45.624;11.700;2022-12-18T11:15:28;15.60;42.80
63013;DHT22;62113;45.624;11.700;2022-12-18T11:17:54;15.50;42.10
63013;DHT22;62113;45.624;11.700;2022-12-18T11:20:31;15.10;42.60
63013;DHT22;62113;45.624;11.700;2022-12-18T11:23:01;14.80;43.90
63013;DHT22;62113;45.624;11.700;2022-12-18T11:25:27;14.70;44.20
63013;DHT22;62113;45.624;11.700;2022-12-18T11:27:58;14.70;45.40
63013;DHT22;62113;45.624;11.700;2022-12-18T11:30:31;14.60;44.80
63013;DHT22;62113;45.624;11.700;2022-12-18T11:33:10;14.40;44.40
63013;DHT22;62113;45.624;11.700;2022-12-18T11:35:46;14.30;44.40
63013;DHT22;62113;45.624;11.700;2022-12-18T11:45:55;14.50;46.00
63013;DHT22;62113;45.624;11.700;2022-12-18T11:48:32;14.50;45.70
63013;DHT22;62113;45.624;11.700;2022-12-18T11:50:58;14.40;45.30
63013;DHT22;62113;45.624;11.700;2022-12-18T11:53:25;14.40;46.10
63013;DHT22;62113;45.624;11.700;2022-12-18T12:09:04;14.20;46.00
63013;DHT22;62113;45.624;11.700;2022-12-18T12:16:59;14.10;46.20
63013;DHT22;62113;45.624;11.700;2022-12-18T12:32:25;14.20;47.70
63013;DHT22;62113;45.624;11.700;2022-12-18T12:39:50;14.20;46.60
63013;DHT22;62113;45.624;11.700;2022-12-18T12:42:24;14.10;46.50
63013;DHT22;62113;45.624;11.700;2022-12-18T12:45:14;14.00;46.40
63013;DHT22;62113;45.624;11.700;2022-12-18T12:47:41;14.00;45.70
63013;DHT22;62113;45.624;11.700;2022-12-18T12:50:12;13.80;44.30
63013;DHT22;62113;45.624;11.700;2022-12-18T12:52:39;13.50;45.00
63013;DHT22;62113;45.624;11.700;2022-12-18T12:55:07;13.40;46.10
63013;DHT22;62113;45.624;11.700;2022-12-18T12:57:40;13.30;46.90
63013;DHT22;62113;45.624;11.700;2022-12-18T13:02:37;13.50;47.80
63013;DHT22;62113;45.624;11.700;2022-12-18T13:05:09;13.60;47.60
63013;DHT22;62113;45.624;11.700;2022-12-18T13:07:50;13.50;47.60
63013;DHT22;62113;45.624;11.700;2022-12-18T13:20:36;13.30;47.60
63013;DHT22;62113;45.624;11.700;2022-12-18T13:23:18;13.30;47.90
63013;DHT22;62113;45.624;11.700;2022-12-18T13:25:44;13.30;47.50
63013;DHT22;62113;45.624;11.700;2022-12-18T13:28:11;13.30;47.60
63013;DHT22;62113;45.624;11.700;2022-12-18T13:30:48;13.30;47.50
63013;DHT22;62113;45.624;11.700;2022-12-18T13:38:21;13.20;46.70
63013;DHT22;62113;45.624;11.700;2022-12-18T13:45:44;13.00;46.60
63013;DHT22;62113;45.624;11.700;2022-12-18T13:48:21;12.90;46.50
63013;DHT22;62113;45.624;11.700;2022-12-18T13:50:53;12.90;47.10
63013;DHT22;62113;45.624;11.700;2022-12-18T13:53:26;12.80;47.30
63013;DHT22;62113;45.624;11.700;2022-12-18T13:55:53;12.80;46.80
63013;DHT22;62113;45.624;11.700;2022-12-18T13:58:18;12.70;46.50
63013;DHT22;62113;45.624;11.700;2022-12-18T14:00:44;12.70;46.50
63013;DHT22;62113;45.624;11.700;2022-12-18T14:03:21;12.60;46.80
63013;DHT22;62113;45.624;11.700;2022-12-18T14:05:52;12.60;47.30
63013;DHT22;62113;45.624;11.700;2022-12-18T14:08:18;12.50;47.90
63013;DHT22;62113;45.624;11.700;2022-12-18T14:10:44;12.50;48.40
63013;DHT22;62113;45.624;11.700;2022-12-18T14:13:11;12.50;48.40
63013;DHT22;62113;45.624;11.700;2022-12-18T14:15:43;12.50;48.40
63013;DHT22;62113;45.624;11.700;2022-12-18T14:20:43;12.50;48.80
63013;DHT22;62113;45.624;11.700;2022-12-18T14:23:25;12.50;48.80
63013;DHT22;62113;45.624;11.700;2022-12-18T14:25:51;12.40;48.70
63013;DHT22;62113;45.624;11.700;2022-12-18T14:28:16;12.40;48.60
63013;DHT22;62113;45.624;11.700;2022-12-18T14:30:43;12.30;48.70
63013;DHT22;62113;45.624;11.700;2022-12-18T14:33:13;12.30;49.00
63013;DHT22;62113;45.624;11.700;2022-12-18T14:35:51;12.30;49.10
63013;DHT22;62113;45.624;11.700;2022-12-18T14:40:43;12.20;49.30
63013;DHT22;62113;45.624;11.700;2022-12-18T14:43:10;12.00;49.40
63013;DHT22;62113;45.624;11.700;2022-12-18T14:45:36;12.00;49.60
63013;DHT22;62113;45.624;11.700;2022-12-18T14:48:06;11.90;49.80
63013;DHT22;62113;45.624;11.700;2022-12-18T14:50:33;11.80;50.10
63013;DHT22;62113;45.624;11.700;2022-12-18T14:52:58;11.70;50.40
63013;DHT22;62113;45.624;11.700;2022-12-18T14:55:24;11.70;50.40
63013;DHT22;62113;45.624;11.700;2022-12-18T14:57:50;11.60;50.60
63013;DHT22;62113;45.624;11.700;2022-12-18T15:00:21;11.60;50.90
63013;DHT22;62113;45.624;11.700;2022-12-18T15:02:54;11.50;51.10
63013;DHT22;62113;45.624;11.700;2022-12-18T15:05:27;11.50;51.30
63013;DHT22;62113;45.624;11.700;2022-12-18T15:07:54;11.40;51.40
63013;DHT22;62113;45.624;11.700;2022-12-18T15:12:47;11.30;51.70
63013;DHT22;62113;45.624;11.700;2022-12-18T15:18:00;11.20;52.10
63013;DHT22;62113;45.624;11.700;2022-12-18T15:20:27;11.20;52.30
63013;DHT22;62113;45.624;11.700;2022-12-18T15:22:52;11.10;52.70
63013;DHT22;62113;45.624;11.700;2022-12-18T15:25:30;11.00;52.80
63013;DHT22;62113;45.624;11.700;2022-12-18T15:27:57;11.00;53.10
63013;DHT22;62113;45.624;11.700;2022-12-18T15:30:23;10.90;53.30
63013;DHT22;62113;45.624;11.700;2022-12-18T15:32:49;10.80;53.50
63013;DHT22;62113;45.624;11.700;2022-12-18T15:35:21;10.80;53.80
63013;DHT22;62113;45.624;11.700;2022-12-18T15:37:47;10.70;53.90
63013;DHT22;62113;45.624;11.700;2022-12-18T15:40:14;10.70;54.00
63013;DHT22;62113;45.624;11.700;2022-12-18T15:42:40;10.60;54.40
63013;DHT22;62113;45.624;11.700;2022-12-18T15:45:23;10.60;54.80
63013;DHT22;62113;45.624;11.700;2022-12-18T15:47:49;10.50;54.90
63013;DHT22;62113;45.624;11.700;2022-12-18T15:50:14;10.50;55.00
63013;DHT22;62113;45.624;11.700;2022-12-18T15:52:44;10.40;55.40
63013;DHT22;62113;45.624;11.700;2022-12-18T15:55:13;10.40;55.50
63013;DHT22;62113;45.624;11.700;2022-12-18T15:57:58;10.30;55.60
63013;DHT22;62113;45.624;11.700;2022-12-18T16:00:23;10.30;55.90
63013;DHT22;62113;45.624;11.700;2022-12-18T16:02:49;10.20;56.20
63013;DHT22;62113;45.624;11.700;2022-12-18T16:05:15;10.20;56.10
63013;DHT22;62113;45.624;11.700;2022-12-18T16:07:42;10.20;56.30
63013;DHT22;62113;45.624;11.700;2022-12-18T16:10:08;10.10;56.80
63013;DHT22;62113;45.624;11.700;2022-12-18T16:12:33;10.10;56.50
63013;DHT22;62113;45.624;11.700;2022-12-18T16:14:59;10.10;56.70
63013;DHT22;62113;45.624;11.700;2022-12-18T16:17:24;10.00;56.80
63013;DHT22;62113;45.624;11.700;2022-12-18T16:19:50;10.00;56.90
63013;DHT22;62113;45.624;11.700;2022-12-18T16:22:19;10.00;57.30
63013;DHT22;62113;45.624;11.700;2022-12-18T16:24:46;9.90;57.30
63013;DHT22;62113;45.624;11.700;2022-12-18T16:27:12;9.80;57.40
63013;DHT22;62113;45.624;11.700;2022-12-18T16:29:37;9.80;57.50
63013;DHT22;62113;45.624;11.700;2022-12-18T16:32:03;9.80;57.60
63013;DHT22;62113;45.624;11.700;2022-12-18T16:34:32;9.70;57.80
63013;DHT22;62113;45.624;11.700;2022-12-18T16:36:59;9.70;57.90
63013;DHT22;62113;45.624;11.700;2022-12-18T16:39:25;9.70;58.10
63013;DHT22;62113;45.624;11.700;2022-12-18T16:41:51;9.60;58.10
63013;DHT22;62113;45.624;11.700;2022-12-18T16:44:18;9.50;58.40
63013;DHT22;62113;45.624;11.700;2022-12-18T16:46:43;9.50;58.40
63013;DHT22;62113;45.624;11.700;2022-12-18T16:49:11;9.40;58.50
63013;DHT22;62113;45.624;11.700;2022-12-18T16:51:36;9.40;58.60
63013;DHT22;62113;45.624;11.700;2022-12-18T16:54:02;9.40;58.60
63013;DHT22;62113;45.624;11.700;2022-12-18T16:56:27;9.30;58.80
63013;DHT22;62113;45.624;11.700;2022-12-18T16:58:53;9.30;59.10
63013;DHT22;62113;45.624;11.700;2022-12-18T17:01:19;9.30;59.00
63013;DHT22;62113;45.624;11.700;2022-12-18T17:03:55;9.20;59.00
63013;DHT22;62113;45.624;11.700;2022-12-18T17:06:21;9.20;59.10
63013;DHT22;62113;45.624;11.700;2022-12-18T17:08:47;9.20;59.20
63013;DHT22;62113;45.624;11.700;2022-12-18T17:11:13;9.20;59.30
63013;DHT22;62113;45.624;11.700;2022-12-18T17:13:38;9.10;59.40
63013;DHT22;62113;45.624;11.700;2022-12-18T17:16:08;9.10;59.50
63013;DHT22;62113;45.624;11.700;2022-12-18T17:18:33;9.00;59.70
63013;DHT22;62113;45.624;11.700;2022-12-18T17:21:03;9.00;59.80